Time;durP1;ratioP1;P1;durP2;ratioP2;P2;SDS_P1;SDS_P2;PMS_P1;PMS_P2;Temp;Humidity;BMP_temperature;BMP_pressure;BME280_temperature;BME280_humidity;BME280_pressure;Samples;Min_cycle;Max_cycle;Signal;HPM_P1;HPM_P2
2021/04/24 00:00:24;;;;;;;53.75;30.33;;;205.60;1740.80;;;;;;5113432;28;20023;-80
2021/04/24 00:02:51;;;;;;;52.58;27.88;;;205.60;1740.80;;;;;;5113057;28;20036;-81
2021/04/24 00:05:18;;;;;;;53.78;30.88;;;205.50;1766.40;;;;;;5113652;28;20015;-81
2021/04/24 00:07:44;;;;;;;51.63;28.67;;;205.50;1766.40;;;;;;5113147;28;20031;-80
2021/04/24 00:10:11;;;;;;;60.95;30.17;;;205.50;1766.40;;;;;;5113294;28;20118;-80
2021/04/24 00:12:37;;;;;;;46.70;28.77;;;205.40;1792.00;;;;;;5113231;28;20023;-80
2021/04/24 00:15:07;;;;;;;53.35;28.35;;;205.40;1792.00;;;;;;5112872;28;20485;-80
2021/04/24 00:17:34;;;;;;;;;;;205.40;1792.00;;;;;;5113745;28;20020;-79
2021/04/24 00:19:59;;;;;;;52.20;27.38;;;205.30;1792.00;;;;;;5112824;28;19936;-80
2021/04/24 00:22:25;;;;;;;46.60;27.08;;;205.30;1792.00;;;;;;5112702;28;20035;-80
2021/04/24 00:24:51;;;;;;;53.88;29.83;;;205.40;1766.40;;;;;;5114754;28;20473;-79
2021/04/24 00:27:16;;;;;;;44.88;26.55;;;205.40;1766.40;;;;;;5114376;28;20098;-79
2021/04/24 00:29:42;;;;;;;47.53;27.63;;;205.60;1740.80;;;;;;5114286;28;20055;-80
2021/04/24 00:32:08;;;;;;;47.70;27.13;;;205.60;1740.80;;;;;;5114142;28;20043;-82
2021/04/24 00:34:33;;;;;;;46.65;27.52;;;205.60;1715.20;;;;;;5114100;28;20085;-81
2021/04/24 00:36:59;;;;;;;49.55;26.80;;;205.60;1740.80;;;;;;5114483;28;20055;-80
2021/04/24 00:39:25;;;;;;;46.38;26.33;;;205.40;1766.40;;;;;;5113119;28;20024;-80
2021/04/24 00:41:51;;;;;;;47.38;26.05;;;205.40;1792.00;;;;;;5113024;28;20057;-80
2021/04/24 00:44:17;;;;;;;47.47;26.67;;;205.30;1792.00;;;;;;5112331;28;20028;-80
2021/04/24 00:46:42;;;;;;;43.95;25.63;;;205.40;1766.40;;;;;;5113934;28;20048;-80
2021/04/24 00:49:10;;;;;;;43.65;25.02;;;205.30;1792.00;;;;;;5112609;28;20481;-80
2021/04/24 00:51:36;;;;;;;44.17;24.55;;;205.20;1792.00;;;;;;5114208;28;20031;-80
2021/04/24 00:54:03;;;;;;;49.22;26.13;;;205.10;1817.60;;;;;;5112819;28;20076;-80
2021/04/24 00:56:29;;;;;;;44.45;25.02;;;205.10;1817.60;;;;;;5113464;28;20027;-80
2021/04/24 00:58:54;;;;;;;46.55;25.80;;;205.20;1792.00;;;;;;5112339;28;20494;-79
2021/04/24 01:01:20;;;;;;;38.22;24.13;;;205.10;1817.60;;;;;;5112530;28;20020;-80
2021/04/24 01:03:46;;;;;;;51.25;27.27;;;205.00;1817.60;;;;;;5112803;28;20050;-79
2021/04/24 01:06:12;;;;;;;47.47;25.02;;;205.00;1817.60;;;;;;5112798;28;20028;-80
2021/04/24 01:08:38;;;;;;;37.50;23.08;;;205.00;1817.60;;;;;;5112634;28;20039;-80
2021/04/24 01:11:04;;;;;;;38.55;22.88;;;205.00;1817.60;;;;;;5114172;28;20027;-80
2021/04/24 01:13:30;;;;;;;40.88;25.35;;;205.00;1817.60;;;;;;5113764;28;20031;-80
2021/04/24 01:15:56;;;;;;;42.83;24.13;;;204.90;1843.20;;;;;;5112993;28;20038;-80
2021/04/24 01:18:22;;;;;;;39.72;23.83;;;204.90;1843.20;;;;;;5114129;28;20552;-80
2021/04/24 01:20:49;;;;;;;39.50;24.13;;;204.90;1843.20;;;;;;5112621;28;20063;-80
2021/04/24 01:23:14;;;;;;;40.63;22.70;;;204.90;1843.20;;;;;;5116747;28;20028;-81
2021/04/24 01:25:44;;;;;;;45.58;22.73;;;204.90;1843.20;;;;;;5116775;28;20024;-80
2021/04/24 01:28:10;;;;;;;38.95;22.80;;;204.90;1843.20;;;;;;5117133;28;20038;-81
2021/04/24 01:30:42;;;;;;;43.60;21.83;;;205.00;1792.00;;;;;;5116417;28;20039;-81
2021/04/24 01:33:09;;;;;;;34.92;21.92;;;205.00;1817.60;;;;;;5117672;27;20951;-80
2021/04/24 01:35:36;;;;;;;37.08;20.02;;;205.00;1817.60;;;;;;5116547;28;20060;-81
2021/04/24 01:38:03;;;;;;;42.67;23.00;;;204.90;1817.60;;;;;;5116234;28;20023;-79
2021/04/24 01:40:29;;;;;;;32.80;18.15;;;204.90;1843.20;;;;;;5115920;28;20028;-79
2021/04/24 01:42:55;;;;;;;40.67;22.35;;;204.80;1843.20;;;;;;5115986;28;20031;-80
2021/04/24 01:45:23;;;;;;;33.42;20.08;;;204.90;1843.20;;;;;;5117441;28;20047;-80
2021/04/24 01:47:49;;;;;;;36.95;21.00;;;204.80;1843.20;;;;;;5115942;28;20040;-80
2021/04/24 01:50:38;;;;;;;38.30;21.73;;;204.80;1843.20;;;;;;5116024;28;20431;-79
2021/04/24 01:53:07;;;;;;;39.67;21.25;;;204.80;1843.20;;;;;;5117081;28;20028;-78
2021/04/24 01:55:35;;;;;;;41.92;22.17;;;180.10;1868.80;;;;;;5115898;28;20016;-80
2021/04/24 01:58:05;;;;;;;33.95;21.67;;;180.00;1868.80;;;;;;5115548;28;20031;-80
2021/04/24 02:00:34;;;;;;;43.30;22.60;;;180.00;1894.40;;;;;;5115743;28;20020;-79
2021/04/24 02:03:03;;;;;;;38.78;22.40;;;180.00;1894.40;;;;;;5115685;28;20489;-80
2021/04/24 02:05:28;;;;;;;37.85;22.65;;;180.00;1868.80;;;;;;5115777;28;20485;-80
2021/04/24 02:07:55;;;;;;;42.70;26.27;;;179.90;1868.80;;;;;;5116849;28;20023;-80
2021/04/24 02:10:22;;;;;;;41.83;23.73;;;179.90;1868.80;;;;;;5117038;28;20019;-80
2021/04/24 02:12:48;;;;;;;47.30;24.58;;;179.90;1894.40;;;;;;5116604;28;20031;-80
2021/04/24 02:15:14;;;;;;;46.15;25.00;;;179.90;1868.80;;;;;;5115475;28;20032;-82
2021/04/24 02:17:40;;;;;;;45.55;24.45;;;179.90;1868.80;;;;;;5116559;28;20030;-80
2021/04/24 02:20:06;;;;;;;41.88;24.85;;;179.90;1868.80;;;;;;5115928;28;20030;-80
2021/04/24 02:22:32;;;;;;;47.55;26.58;;;179.80;1868.80;;;;;;5114902;28;20028;-79
2021/04/24 02:25:00;;;;;;;44.95;27.45;;;179.80;1868.80;;;;;;5115482;28;20038;-79
2021/04/24 02:27:27;;;;;;;54.92;29.13;;;179.80;1868.80;;;;;;5115098;28;20374;-79
2021/04/24 02:29:54;;;;;;;53.75;28.23;;;179.80;1894.40;;;;;;5115584;28;20023;-80
2021/04/24 02:32:22;;;;;;;51.03;27.55;;;179.80;1868.80;;;;;;5115238;28;20027;-80
2021/04/24 02:34:49;;;;;;;56.05;29.08;;;180.00;1843.20;;;;;;5113542;28;20180;-80
2021/04/24 02:37:16;;;;;;;52.83;28.33;;;179.90;1868.80;;;;;;5114863;28;20115;-79
2021/04/24 02:39:44;;;;;;;48.17;25.70;;;179.80;1894.40;;;;;;5115206;28;20045;-80
2021/04/24 02:42:17;;;;;;;57.42;28.25;;;179.70;1894.40;;;;;;5115431;28;20026;-80
2021/04/24 02:44:43;;;;;;;44.72;24.10;;;179.80;1868.80;;;;;;5115226;28;20027;-80
2021/04/24 02:47:10;;;;;;;40.05;21.98;;;179.90;1843.20;;;;;;5115107;28;20019;-79
2021/04/24 02:49:36;;;;;;;47.17;23.90;;;179.90;1868.80;;;;;;5115025;28;20024;-80
2021/04/24 02:52:04;;;;;;;44.47;23.23;;;179.90;1894.40;;;;;;5115991;28;20031;-80
2021/04/24 02:54:29;;;;;;;41.47;22.35;;;179.80;1894.40;;;;;;5115090;28;20022;-80
2021/04/24 02:56:56;;;;;;;38.13;21.98;;;179.70;1894.40;;;;;;5115993;28;20019;-79
2021/04/24 02:59:22;;;;;;;32.55;19.65;;;179.70;1894.40;;;;;;5114915;28;20050;-80
2021/04/24 03:01:48;;;;;;;34.30;19.35;;;179.70;1894.40;;;;;;5113638;28;20035;-79
2021/04/24 03:04:15;;;;;;;35.38;19.83;;;179.80;1894.40;;;;;;5114361;28;20361;-79
2021/04/24 03:06:44;;;;;;;30.70;18.77;;;179.90;1868.80;;;;;;5114714;28;20024;-80
2021/04/24 03:09:10;;;;;;;31.90;17.35;;;179.80;1894.40;;;;;;5114570;28;20035;-80
2021/04/24 03:11:37;;;;;;;31.73;18.45;;;179.70;1920.00;;;;;;5114150;28;20039;-80
2021/04/24 03:14:04;;;;;;;26.80;16.63;;;179.80;1868.80;;;;;;5114665;28;20040;-80
2021/04/24 03:16:30;;;;;;;28.27;16.58;;;179.80;1894.40;;;;;;5115874;28;20055;-80
2021/04/24 03:18:56;;;;;;;29.05;16.60;;;179.70;1894.40;;;;;;5115434;28;20035;-79
2021/04/24 03:21:23;;;;;;;24.38;15.82;;;179.80;1843.20;;;;;;5114612;28;20027;-81
2021/04/24 03:23:49;;;;;;;30.00;15.02;;;179.70;1894.40;;;;;;5114398;28;20378;-80
2021/04/24 03:26:15;;;;;;;32.05;17.42;;;179.80;1894.40;;;;;;5114436;28;20114;-80
2021/04/24 03:28:42;;;;;;;27.58;15.57;;;179.60;1894.40;;;;;;5114353;28;20051;-79
2021/04/24 03:31:08;;;;;;;28.17;17.13;;;179.50;1920.00;;;;;;5115510;28;20027;-79
2021/04/24 03:33:34;;;;;;;34.03;16.20;;;179.40;1920.00;;;;;;5115124;28;20492;-79
2021/04/24 03:35:59;;;;;;;29.02;16.83;;;179.30;1920.00;;;;;;5113628;28;20114;-79
2021/04/24 03:38:25;;;;;;;33.75;17.58;;;179.40;1920.00;;;;;;5113596;28;20034;-79
2021/04/24 03:40:51;;;;;;;30.92;15.82;;;179.40;1920.00;;;;;;5113313;28;20038;-79
2021/04/24 03:43:17;;;;;;;32.38;16.80;;;179.40;1920.00;;;;;;5113645;28;20065;-80
2021/04/24 03:45:43;;;;;;;31.98;16.63;;;179.40;1920.00;;;;;;5114178;28;20071;-79
2021/04/24 03:48:09;;;;;;;38.03;17.92;;;179.40;1894.40;;;;;;5113725;28;20032;-79
2021/04/24 03:50:35;;;;;;;27.65;16.52;;;179.50;1894.40;;;;;;5113029;28;20038;-79
2021/04/24 03:53:01;;;;;;;33.35;16.70;;;179.50;1868.80;;;;;;5113480;28;20065;-79
2021/04/24 03:55:27;;;;;;;33.22;17.65;;;179.50;1868.80;;;;;;5113504;28;20050;-79
2021/04/24 03:57:56;;;;;;;30.63;17.13;;;179.50;1894.40;;;;;;5113137;28;20030;-79
2021/04/24 04:00:25;;;;;;;30.77;17.70;;;179.40;1868.80;;;;;;5113638;28;20073;-80
2021/04/24 04:02:56;;;;;;;30.02;17.83;;;179.60;1868.80;;;;;;5114596;28;20024;-80
2021/04/24 04:05:22;;;;;;;;;;;179.50;1868.80;;;;;;5115337;28;20019;-80
2021/04/24 04:07:48;;;;;;;27.70;17.30;;;179.50;1894.40;;;;;;5114677;28;19929;-80
2021/04/24 04:10:15;;;;;;;34.15;17.05;;;179.50;1894.40;;;;;;5113444;28;20544;-80
2021/04/24 04:12:42;;;;;;;29.63;17.15;;;179.50;1868.80;;;;;;5113398;28;20027;-80
2021/04/24 04:15:09;;;;;;;33.80;17.80;;;179.60;1894.40;;;;;;5113695;28;20092;-80
2021/04/24 04:17:37;;;;;;;31.42;17.02;;;179.60;1868.80;;;;;;5114045;28;20028;-80
2021/04/24 04:20:07;;;;;;;32.38;16.42;;;179.70;1868.80;;;;;;5113668;28;20019;-80
2021/04/24 04:22:33;;;;;;;31.23;17.55;;;179.70;1894.40;;;;;;5113509;28;20038;-80
2021/04/24 04:24:59;;;;;;;52.55;25.38;;;179.80;1868.80;;;;;;5112735;28;20392;-80
2021/04/24 04:27:24;;;;;;;51.35;30.73;;;180.00;1817.60;;;;;;5112522;28;20024;-80
2021/04/24 04:29:50;;;;;;;72.72;37.60;;;180.00;1868.80;;;;;;5112727;28;20031;-80
2021/04/24 04:32:16;;;;;;;69.75;39.22;;;204.80;1843.20;;;;;;5113198;28;20028;-80
2021/04/24 04:34:41;;;;;;;75.20;42.92;;;204.80;1817.60;;;;;;5114139;28;20492;-80
2021/04/24 04:37:07;;;;;;;70.97;43.30;;;205.00;1792.00;;;;;;5113208;28;20463;-79
2021/04/24 04:39:33;;;;;;;72.00;42.90;;;205.10;1740.80;;;;;;5114249;28;20069;-80
2021/04/24 04:41:59;;;;;;;64.45;36.63;;;205.30;1740.80;;;;;;5114105;28;20411;-80
2021/04/24 04:44:24;;;;;;;50.60;29.55;;;205.40;1715.20;;;;;;5112729;28;20032;-81
2021/04/24 04:46:50;;;;;;;39.45;24.05;;;205.50;1715.20;;;;;;5112170;28;20043;-81
2021/04/24 04:49:16;;;;;;;31.60;17.95;;;205.70;1689.60;;;;;;5114344;28;20563;-81
2021/04/24 04:51:42;;;;;;;23.50;13.73;;;205.70;1689.60;;;;;;5113710;28;20027;-80
2021/04/24 04:54:08;;;;;;;23.45;13.65;;;230.50;1664.00;;;;;;5112700;28;20024;-81
2021/04/24 04:56:33;;;;;;;20.05;13.18;;;230.50;1664.00;;;;;;5112627;28;20028;-79
2021/04/24 04:58:59;;;;;;;27.60;13.68;;;230.60;1664.00;;;;;;5117833;28;20016;-80
2021/04/24 05:01:25;;;;;;;23.55;11.88;;;230.70;1638.40;;;;;;5115983;28;20038;-79
2021/04/24 05:03:51;;;;;;;22.65;11.75;;;230.80;1638.40;;;;;;5079227;28;20047;-80
2021/04/24 05:06:16;;;;;;;18.35;13.00;;;230.80;1612.80;;;;;;5076090;28;20058;-80
2021/04/24 05:08:42;;;;;;;20.15;13.45;;;231.00;1612.80;;;;;;5086017;28;20020;-79
2021/04/24 05:11:08;;;;;;;16.17;11.70;;;231.10;1587.20;;;;;;5130119;27;20122;-78
2021/04/24 05:13:34;;;;;;;16.73;10.57;;;231.10;1587.20;;;;;;5096827;28;20036;-79
2021/04/24 05:16:00;;;;;;;16.17;10.77;;;231.30;1587.20;;;;;;5096717;28;20032;-78
2021/04/24 05:18:27;;;;;;;13.63;10.25;;;231.30;1587.20;;;;;;5097498;28;20066;-80
2021/04/24 05:20:53;;;;;;;17.05;10.73;;;256.00;1561.60;;;;;;5095794;28;20037;-81
2021/04/24 05:23:19;;;;;;;18.17;10.10;;;256.00;1561.60;;;;;;5096288;28;20039;-81
2021/04/24 05:25:44;;;;;;;17.45;9.75;;;256.10;1561.60;;;;;;5095856;28;20035;-79
2021/04/24 05:28:10;;;;;;;18.30;10.38;;;256.30;1561.60;;;;;;5092079;28;20039;-80
2021/04/24 05:30:36;;;;;;;16.00;8.45;;;256.30;1536.00;;;;;;5129666;27;20059;-79
2021/04/24 05:33:03;;;;;;;19.40;11.48;;;256.40;1536.00;;;;;;5091720;28;20066;-82
2021/04/24 05:35:28;;;;;;;20.60;12.30;;;256.50;1536.00;;;;;;5077176;28;20032;-81
2021/04/24 05:37:54;;;;;;;17.95;9.70;;;256.60;1536.00;;;;;;5075778;28;20031;-80
2021/04/24 05:40:20;;;;;;;14.05;9.25;;;256.70;1536.00;;;;;;5109369;28;20032;-80
2021/04/24 05:42:46;;;;;;;12.95;8.40;;;256.80;1536.00;;;;;;5076576;28;20029;-79
2021/04/24 05:45:13;;;;;;;13.63;8.90;;;256.90;1510.40;;;;;;5075554;28;20048;-81
2021/04/24 05:47:41;;;;;;;17.88;9.85;;;281.60;1536.00;;;;;;5109368;28;20029;-80
2021/04/24 05:50:08;;;;;;;15.85;8.50;;;281.70;1536.00;;;;;;5107385;28;20043;-80
2021/04/24 05:52:34;;;;;;;20.85;12.05;;;281.80;1510.40;;;;;;5073789;28;20082;-79
2021/04/24 05:55:00;;;;;;;20.88;12.52;;;281.80;1510.40;;;;;;5073518;28;20021;-80
2021/04/24 05:57:26;;;;;;;12.18;9.13;;;281.90;1510.40;;;;;;5073767;28;20576;-80
2021/04/24 05:59:52;;;;;;;17.95;11.30;;;282.00;1510.40;;;;;;5072274;28;20055;-80
2021/04/24 06:02:18;;;;;;;13.35;10.05;;;282.00;1484.80;;;;;;5074862;28;20056;-80
2021/04/24 06:04:43;;;;;;;19.65;10.85;;;282.10;1484.80;;;;;;5073735;28;20082;-79
2021/04/24 06:07:09;;;;;;;16.02;9.05;;;282.20;1484.80;;;;;;5073182;28;20044;-79
2021/04/24 06:09:35;;;;;;;12.25;8.68;;;282.20;1484.80;;;;;;5073912;28;20021;-80
2021/04/24 06:12:01;;;;;;;10.38;8.35;;;282.30;1484.80;;;;;;5107429;28;20031;-80
2021/04/24 06:14:26;;;;;;;12.13;8.50;;;282.30;1459.20;;;;;;5086736;28;20035;-79
2021/04/24 06:16:52;;;;;;;10.95;7.35;;;282.40;1459.20;;;;;;5095195;28;20021;-80
2021/04/24 06:19:18;;;;;;;14.77;9.32;;;282.50;1484.80;;;;;;5095463;28;20481;-80
2021/04/24 06:21:44;;;;;;;10.90;7.60;;;282.50;1459.20;;;;;;5093448;28;20024;-80
2021/04/24 06:24:10;;;;;;;12.15;9.18;;;307.20;1484.80;;;;;;5093068;28;20035;-80
2021/04/24 06:26:35;;;;;;;14.48;9.85;;;307.30;1484.80;;;;;;5093096;28;20040;-80
2021/04/24 06:29:01;;;;;;;14.52;8.57;;;307.30;1484.80;;;;;;5092751;28;20051;-80
2021/04/24 06:31:27;;;;;;;15.30;9.27;;;307.50;1484.80;;;;;;5092862;28;20024;-79
2021/04/24 06:33:53;;;;;;;12.07;8.65;;;307.50;1484.80;;;;;;5094480;28;20107;-79
2021/04/24 06:36:18;;;;;;;12.48;8.93;;;307.50;1484.80;;;;;;5094539;28;20016;-81
2021/04/24 06:38:45;;;;;;;14.82;8.93;;;307.60;1459.20;;;;;;5093088;28;20020;-79
2021/04/24 06:41:12;;;;;;;13.07;7.88;;;307.70;1459.20;;;;;;5093292;28;20020;-80
2021/04/24 06:43:38;;;;;;;10.63;8.07;;;307.70;1459.20;;;;;;5094188;28;20024;-80
2021/04/24 06:46:03;;;;;;;14.48;8.27;;;307.80;1459.20;;;;;;5092951;28;20493;-81
2021/04/24 06:48:29;;;;;;;10.32;7.53;;;307.90;1459.20;;;;;;5094007;28;20039;-79
2021/04/24 06:50:57;;;;;;;13.48;8.15;;;308.00;1459.20;;;;;;5094488;28;20042;-81
2021/04/24 06:53:25;;;;;;;16.02;9.32;;;308.00;1459.20;;;;;;5093294;28;20036;-80
2021/04/24 06:55:52;;;;;;;12.90;8.50;;;308.10;1459.20;;;;;;5088417;28;20052;-80
2021/04/24 06:58:18;;;;;;;12.82;8.20;;;332.80;1459.20;;;;;;5090810;28;20489;-80
2021/04/24 07:00:44;;;;;;;14.18;8.48;;;332.90;1433.60;;;;;;5092096;28;20513;-80
2021/04/24 07:03:10;;;;;;;9.55;7.53;;;333.00;1408.00;;;;;;5080575;28;20476;-80
2021/04/24 07:05:36;;;;;;;12.23;7.85;;;332.90;1356.80;;;;;;5072853;28;20047;-81
2021/04/24 07:08:02;;;;;;;11.65;7.90;;;333.00;1408.00;;;;;;5072324;28;20039;-81
2021/04/24 07:10:28;;;;;;;12.05;8.65;;;333.10;1408.00;;;;;;5073462;28;20041;-82
2021/04/24 07:12:53;;;;;;;17.50;10.23;;;333.20;1408.00;;;;;;5075019;28;20033;-83
2021/04/24 07:15:19;;;;;;;13.52;8.77;;;333.20;1382.40;;;;;;5073959;28;20036;-82
2021/04/24 07:17:46;;;;;;;10.68;9.15;;;333.30;1356.80;;;;;;5074651;28;20119;-83
2021/04/24 07:20:13;;;;;;;16.75;8.60;;;333.30;1382.40;;;;;;5075438;28;20035;-86
2021/04/24 07:22:39;;;;;;;11.23;7.07;;;333.40;1382.40;;;;;;5087516;28;20024;-82
2021/04/24 07:25:06;;;;;;;13.82;8.43;;;333.40;1382.40;;;;;;5077848;28;20040;-82
2021/04/24 07:27:32;;;;;;;16.90;8.05;;;333.60;1356.80;;;;;;5087439;28;20473;-83
2021/04/24 07:29:58;;;;;;;15.65;8.05;;;333.60;1382.40;;;;;;5092841;28;20040;-82
2021/04/24 07:32:24;;;;;;;12.32;7.50;;;333.60;1356.80;;;;;;5092975;28;20043;-82
2021/04/24 07:34:49;;;;;;;14.85;8.30;;;333.70;1356.80;;;;;;5093265;28;20550;-82
2021/04/24 07:37:15;;;;;;;11.65;6.97;;;358.40;1356.80;;;;;;5095198;28;20031;-82
2021/04/24 07:39:41;;;;;;;7.95;5.93;;;358.50;1331.20;;;;;;5094144;28;20036;-82
2021/04/24 07:42:07;;;;;;;11.40;7.53;;;358.50;1331.20;;;;;;5095178;28;20024;-83
2021/04/24 07:44:37;;;;;;;9.73;7.45;;;358.50;1305.60;;;;;;5094386;28;20030;-82
2021/04/24 07:47:03;;;;;;;13.73;7.07;;;358.60;1331.20;;;;;;5093688;28;20509;-82
2021/04/24 07:49:29;;;;;;;7.65;6.40;;;358.70;1305.60;;;;;;5094112;28;20035;-83
2021/04/24 07:51:54;;;;;;;11.48;5.65;;;358.70;1305.60;;;;;;5095332;28;20028;-83
2021/04/24 07:54:20;;;;;;;8.95;5.78;;;358.80;1280.00;;;;;;5093596;28;20370;-82
2021/04/24 07:56:46;;;;;;;9.68;5.78;;;358.80;1280.00;;;;;;5094933;28;20069;-83
2021/04/24 07:59:12;;;;;;;6.50;5.35;;;358.90;1280.00;;;;;;5093974;28;20028;-82
2021/04/24 08:01:39;;;;;;;10.27;6.18;;;359.00;1280.00;;;;;;5093791;28;20110;-82
2021/04/24 08:04:06;;;;;;;6.43;5.75;;;359.00;1280.00;;;;;;5093585;28;20028;-84
2021/04/24 08:06:31;;;;;;;16.23;7.38;;;359.10;1280.00;;;;;;5094728;28;20043;-82
2021/04/24 08:08:57;;;;;;;11.02;6.18;;;359.20;1280.00;;;;;;5093972;28;20674;-82
2021/04/24 08:11:23;;;;;;;12.70;6.63;;;359.20;1254.40;;;;;;5093620;28;20470;-83
2021/04/24 08:13:49;;;;;;;11.93;6.65;;;359.30;1254.40;;;;;;5093161;28;20085;-82
2021/04/24 08:16:15;;;;;;;11.65;6.72;;;359.30;1228.80;;;;;;5093717;28;20481;-82
2021/04/24 08:18:40;;;;;;;11.15;6.13;;;384.00;1254.40;;;;;;5093844;28;20070;-81
2021/04/24 08:21:08;;;;;;;14.93;7.05;;;384.10;1228.80;;;;;;5094613;28;20465;-83
2021/04/24 08:23:33;;;;;;;9.02;6.22;;;384.10;1254.40;;;;;;5093733;28;20444;-83
2021/04/24 08:25:59;;;;;;;10.18;6.70;;;384.20;1254.40;;;;;;5093727;28;20055;-83
2021/04/24 08:28:25;;;;;;;7.95;5.68;;;384.30;1228.80;;;;;;5093376;28;20074;-83
2021/04/24 08:30:51;;;;;;;9.13;5.85;;;384.30;1203.20;;;;;;5093623;28;20511;-83
2021/04/24 08:33:16;;;;;;;8.18;5.88;;;384.30;1177.60;;;;;;5093301;28;20024;-82
2021/04/24 08:35:43;;;;;;;8.77;5.60;;;384.40;1177.60;;;;;;5092711;28;20039;-83
2021/04/24 08:38:09;;;;;;;10.63;6.53;;;384.50;1177.60;;;;;;5092963;28;20031;-83
2021/04/24 08:40:35;;;;;;;9.55;6.35;;;384.50;1203.20;;;;;;5093482;28;20020;-82
2021/04/24 08:43:02;;;;;;;8.23;5.97;;;384.60;1228.80;;;;;;5093331;28;20024;-83
2021/04/24 08:45:29;;;;;;;7.45;5.35;;;384.70;1177.60;;;;;;5092899;28;20052;-82
2021/04/24 08:47:55;;;;;;;9.25;5.47;;;384.80;1177.60;;;;;;5093289;28;20028;-83
2021/04/24 08:50:26;;;;;;;10.65;6.05;;;384.90;1177.60;;;;;;5093105;28;20122;-83
2021/04/24 08:52:53;;;;;;;8.32;5.80;;;384.90;1203.20;;;;;;5093032;28;20020;-81
2021/04/24 08:55:22;;;;;;;8.23;5.53;;;409.60;1152.00;;;;;;5092954;28;20027;-83
2021/04/24 08:57:49;;;;;;;5.70;4.95;;;409.70;1177.60;;;;;;5093000;28;20103;-86
2021/04/24 09:00:17;;;;;;;11.82;6.22;;;409.60;1152.00;;;;;;5093155;28;20473;-81
2021/04/24 09:02:44;;;;;;;11.52;6.25;;;409.70;1177.60;;;;;;5091822;28;20115;-78
2021/04/24 09:05:12;;;;;;;12.93;5.75;;;409.80;1228.80;;;;;;5093015;28;20032;-79
2021/04/24 09:07:38;;;;;;;9.40;5.72;;;409.90;1228.80;;;;;;5074975;28;20104;-80
2021/04/24 09:10:04;;;;;;;7.95;4.88;;;409.90;1203.20;;;;;;5092133;28;20473;-80
2021/04/24 09:12:38;;;;;;;8.48;4.65;;;410.00;1152.00;;;;;;5091507;28;20362;-79
2021/04/24 09:15:12;;;;;;;7.53;5.10;;;410.10;1177.60;;;;;;5090394;28;20028;-78
2021/04/24 09:17:51;;;;;;;9.45;6.10;;;410.10;1177.60;;;;;;5091748;28;20484;-79
2021/04/24 09:20:17;;;;;;;10.23;5.95;;;410.20;1100.80;;;;;;5091118;28;20020;-78
2021/04/24 09:22:52;;;;;;;10.35;6.07;;;410.20;1177.60;;;;;;5090435;28;20538;-78
2021/04/24 09:25:17;;;;;;;9.70;6.00;;;410.30;1152.00;;;;;;5090233;28;20081;-78
2021/04/24 09:27:46;;;;;;;7.38;4.35;;;410.40;1228.80;;;;;;5090486;28;20028;-79
2021/04/24 09:30:28;;;;;;;10.50;5.00;;;410.50;1177.60;;;;;;5091380;28;20481;-78
2021/04/24 09:33:00;;;;;;;7.60;4.53;;;435.30;1177.60;;;;;;5090033;28;20036;-78
2021/04/24 09:35:27;;;;;;;8.68;4.13;;;435.30;1126.40;;;;;;5090443;28;20024;-78
2021/04/24 09:38:01;;;;;;;6.45;4.10;;;435.30;1126.40;;;;;;5090925;28;20055;-78
2021/04/24 09:40:27;;;;;;;9.07;3.72;;;435.40;1152.00;;;;;;5089871;28;20035;-79
2021/04/24 09:43:01;;;;;;;5.57;4.30;;;435.50;1075.20;;;;;;5091020;28;20482;-79
2021/04/24 09:45:38;;;;;;;8.82;3.60;;;435.40;1075.20;;;;;;5093743;28;20125;-79
2021/04/24 09:48:04;;;;;;;6.90;4.35;;;435.50;1075.20;;;;;;5094007;28;20056;-79
2021/04/24 09:50:36;;;;;;;4.45;4.05;;;435.50;1049.60;;;;;;5095216;28;20385;-79
2021/04/24 09:53:26;;;;;;;6.32;4.60;;;435.60;1100.80;;;;;;5093633;28;20059;-78
2021/04/24 09:55:53;;;;;;;9.25;3.80;;;435.70;1100.80;;;;;;5095050;28;20031;-78
2021/04/24 09:58:31;;;;;;;8.52;4.38;;;435.80;1100.80;;;;;;5093030;28;20119;-77
2021/04/24 10:01:18;;;;;;;9.35;4.20;;;435.80;1100.80;;;;;;5100873;28;20035;-79
2021/04/24 10:03:44;;;;;;;5.90;4.35;;;435.80;1049.60;;;;;;5096821;28;20389;-79
2021/04/24 10:06:35;;;;;;;7.00;3.63;;;435.90;1049.60;;;;;;5094277;28;20028;-79
2021/04/24 10:09:20;;;;;;;11.70;4.80;;;436.00;1049.60;;;;;;5094035;28;20058;-80
2021/04/24 10:12:02;;;;;;;8.10;4.60;;;436.10;1049.60;;;;;;5094941;28;20020;-80
2021/04/24 10:14:46;;;;;;;6.13;4.60;;;436.10;1075.20;;;;;;5096648;28;20085;-82
2021/04/24 10:17:13;;;;;;;12.98;5.32;;;460.80;1100.80;;;;;;5094374;28;20024;-90
2021/04/24 10:19:40;;;;;;;5.45;4.57;;;460.90;1075.20;;;;;;5095556;28;20020;-81
2021/04/24 10:22:09;;;;;;;9.07;4.32;;;460.90;1126.40;;;;;;5093413;28;20403;-77
2021/04/24 10:24:36;;;;;;;7.25;4.72;;;461.00;1100.80;;;;;;5093096;28;20550;-78
2021/04/24 10:27:03;;;;;;;23.55;5.35;;;461.00;1075.20;;;;;;5094563;28;20078;-77
2021/04/24 10:29:29;;;;;;;12.23;5.53;;;461.10;1049.60;;;;;;5093487;28;20031;-78
2021/04/24 10:31:56;;;;;;;14.98;6.88;;;461.20;1049.60;;;;;;5094371;28;20095;-78
2021/04/24 10:34:22;;;;;;;10.30;4.78;;;461.10;1024.00;;;;;;5094215;28;20473;-78
2021/04/24 10:36:48;;;;;;;13.88;4.22;;;461.10;1024.00;;;;;;5092916;28;20107;-76
2021/04/24 10:39:35;;;;;;;6.10;3.60;;;461.10;1049.60;;;;;;5092652;28;20389;-77
2021/04/24 10:42:16;;;;;;;11.30;4.78;;;461.20;998.40;;;;;;5094317;28;20473;-76
2021/04/24 10:44:56;;;;;;;7.32;3.63;;;461.20;1024.00;;;;;;5092027;28;20036;-77
2021/04/24 10:47:41;;;;;;;8.60;4.07;;;461.30;998.40;;;;;;5092687;28;20074;-77
2021/04/24 10:50:16;;;;;;;8.75;4.03;;;461.40;972.80;;;;;;5092285;28;20257;-77
2021/04/24 10:52:44;;;;;;;5.35;3.78;;;461.40;998.40;;;;;;5092694;28;20024;-76
2021/04/24 10:55:15;;;;;;;7.32;4.75;;;461.50;998.40;;;;;;5091722;28;20431;-78
2021/04/24 10:57:46;;;;;;;16.33;5.00;;;461.60;998.40;;;;;;5092899;28;20474;-78
2021/04/24 11:00:18;;;;;;;10.48;4.63;;;461.60;1024.00;;;;;;5093134;28;20074;-77
2021/04/24 11:02:45;;;;;;;9.02;4.93;;;461.70;998.40;;;;;;5092094;28;20038;-77
2021/04/24 11:05:30;;;;;;;12.05;3.80;;;486.40;972.80;;;;;;5092510;28;20449;-76
2021/04/24 11:08:19;;;;;;;9.07;3.72;;;486.50;998.40;;;;;;5093788;28;20028;-78
2021/04/24 11:10:47;;;;;;;13.23;5.20;;;486.60;998.40;;;;;;5093859;28;20032;-77
2021/04/24 11:13:15;;;;;;;5.82;4.97;;;486.70;972.80;;;;;;5091923;28;20040;-78
2021/04/24 11:15:41;;;;;;;9.05;5.10;;;486.70;972.80;;;;;;5093366;28;20474;-82
2021/04/24 11:18:10;;;;;;;14.48;6.65;;;486.80;972.80;;;;;;5093396;28;20024;-78
2021/04/24 11:20:57;;;;;;;15.35;5.25;;;486.80;972.80;;;;;;5092027;28;20032;-77
2021/04/24 11:23:43;;;;;;;6.60;3.90;;;486.80;947.20;;;;;;5093583;28;20032;-78
2021/04/24 11:26:10;;;;;;;10.70;4.38;;;486.80;947.20;;;;;;5091906;28;20065;-77
2021/04/24 11:29:09;;;;;;;11.20;4.70;;;486.80;921.60;;;;;;5093749;28;20032;-84
2021/04/24 11:31:58;;;;;;;8.75;5.30;;;486.70;921.60;;;;;;5093310;28;20027;-77
2021/04/24 11:34:30;;;;;;;19.80;5.70;;;486.80;947.20;;;;;;5091826;28;20020;-78
2021/04/24 11:37:31;;;;;;;5.55;4.60;;;487.00;972.80;;;;;;5092981;28;20547;-77
2021/04/24 11:40:19;;;;;;;8.90;5.20;;;487.00;972.80;;;;;;5093063;28;20507;-80
2021/04/24 11:42:48;;;;;;;14.45;5.88;;;487.20;972.80;;;;;;5091286;28;20036;-78
2021/04/24 11:45:15;;;;;;;9.10;6.40;;;487.20;947.20;;;;;;5091319;28;20036;-78
2021/04/24 11:47:45;;;;;;;14.98;7.18;;;487.30;947.20;;;;;;5091673;28;20028;-79
2021/04/24 11:50:12;;;;;;;16.85;6.40;;;487.30;947.20;;;;;;5093822;28;20024;-78
2021/04/24 11:52:39;;;;;;;8.98;5.50;;;512.00;947.20;;;;;;5092503;28;20047;-78
2021/04/24 11:55:05;;;;;;;16.77;6.00;;;512.00;947.20;;;;;;5094439;28;20645;-78
2021/04/24 11:57:32;;;;;;;9.45;5.93;;;512.10;947.20;;;;;;5092556;28;20402;-77
2021/04/24 11:59:58;;;;;;;7.65;5.57;;;512.20;921.60;;;;;;5091632;28;20338;-78
2021/04/24 12:02:27;;;;;;;18.65;5.45;;;512.10;947.20;;;;;;5092567;28;20039;-79
2021/04/24 12:05:10;;;;;;;11.18;5.68;;;512.30;947.20;;;;;;5093148;28;20481;-78
2021/04/24 12:07:40;;;;;;;6.32;4.57;;;512.30;921.60;;;;;;5091904;28;20036;-77
2021/04/24 12:10:06;;;;;;;;;;;512.50;921.60;;;;;;5093337;28;20503;-78
2021/04/24 12:12:37;;;;;;;9.70;5.82;;;512.60;947.20;;;;;;5092444;28;19973;-77